Terminal Aerodrome Forecast
Issued by NWS

Home | Current Version | Previous Version | Text Only | Print | Product List | Glossary On
Versions: 1 2 3 4 5 6 7 8 9 10 11 12 13 14 15 16 17 18 19 20 21 22 23 24 25 26
982
FTUS43 KIND 300825 AAB
TAFLAF
TAF AMD
KLAF 300825Z 3008/3106 00000KT 4SM BR SKC
      TEMPO 3008/3012 1 1/2SM BR
     FM301500 10005KT P6SM SCT030 BKN250
     FM310200 02004KT P6SM BKN100
      AMD LTD TO CLD VIS AND WIND TIL 301300=

USA.gov is the U.S. government's official web portal to all federal, state and local government web resources and services.